»·PEaware :: DAL2163 KPDX-KSEA

DAL2163 :: KPDX-KSEA

FLIGHT INFORMATION

Flight Status: Arrived
Operator:
Delta Air Lines
More flights by this operator :: More flights under this callsign
Pilot: Ryan L. (9775)
Aircraft: BOEING 737-800
(B738)
More flights by this aircraft type
Origin: KPDX Portland Intl
United States
Destination: KSEA Seattle-Tacoma Intl
United States
More flights between these airports :: More routes between these airports
Route: +COUGA KRIEG HAWKZ6
File this flight plan on PilotEdge
Remarks:
Altitude:
(Current/Filed)
14,000ft
Speed:
(Current/Filed)
350kts
Departed: 11-Jan-18 08:39 AM
Arrived: 11-Jan-18 09:17 AM
Distance/Time
Traveled:
112nm/0:38
Distance/Time
To Go:
Arrived

Flight Plot

Page will automatically refresh every two minutes.

Flight plan parsing failed; only flown route is shown


Map Options




Map Legend


Flown Route
Filed Route
Departure Airport
Arrival Airport
Navaid (VOR, NDB)
Fix

Horizontal Profiles

Position Reports

Time Latitude Longitude Heading Altitude Ground
Speed
11-Jan-18 08:13 45.591016 -122.593510 207 36ft 0kts
11-Jan-18 08:14 45.591016 -122.593510 207 36ft 0kts
11-Jan-18 08:15 45.591016 -122.593510 207 36ft 0kts
11-Jan-18 08:16 45.591016 -122.593510 207 36ft 0kts
11-Jan-18 08:17 45.591016 -122.593510 207 36ft 0kts
11-Jan-18 08:18 45.591016 -122.593510 207 36ft 0kts
11-Jan-18 08:19 45.591016 -122.593510 207 36ft 0kts
11-Jan-18 08:20 45.591016 -122.593510 207 36ft 0kts
11-Jan-18 08:21 45.591016 -122.593510 207 36ft 0kts
11-Jan-18 08:22 45.591016 -122.593510 207 36ft 0kts
11-Jan-18 08:23 45.591016 -122.593510 207 36ft 0kts
11-Jan-18 08:24 45.591016 -122.593510 207 36ft 0kts
11-Jan-18 08:25 45.591016 -122.593510 207 36ft 0kts
11-Jan-18 08:26 45.591016 -122.593510 207 36ft 0kts
11-Jan-18 08:27 45.591016 -122.593510 207 36ft 0kts
11-Jan-18 08:28 45.591016 -122.593510 207 36ft 0kts
11-Jan-18 08:29 45.591016 -122.593510 207 36ft 0kts
11-Jan-18 08:30 45.591016 -122.593510 207 36ft 0kts
11-Jan-18 08:31 45.591016 -122.593510 207 36ft 0kts
11-Jan-18 08:32 45.591016 -122.593510 207 36ft 0kts
11-Jan-18 08:33 45.591016 -122.593510 207 36ft 0kts
11-Jan-18 08:34 45.591016 -122.593510 207 36ft 0kts
11-Jan-18 08:35 45.591168 -122.593393 208 37ft 2kts
11-Jan-18 08:36 45.591561 -122.592811 269 36ft 2kts
11-Jan-18 08:37 45.591337 -122.592107 299 37ft 0kts
11-Jan-18 08:38 45.591337 -122.592107 299 36ft 0kts
11-Jan-18 08:39 45.591337 -122.592107 299 36ft 0kts
11-Jan-18 08:40 45.591636 -122.592850 299 36ft 10kts
11-Jan-18 08:41 45.594091 -122.597876 21 37ft 15kts
11-Jan-18 08:42 45.594345 -122.597620 43 36ft 0kts
11-Jan-18 08:43 45.594354 -122.597608 43 36ft 1kts
11-Jan-18 08:44 45.594281 -122.594199 119 36ft 17kts
11-Jan-18 08:45 45.578577 -122.554237 118 844ft 170kts
11-Jan-18 08:46 45.554905 -122.494488 117 2505ft 184kts
11-Jan-18 08:47 45.529449 -122.426810 117 3817ft 195kts
11-Jan-18 08:48 45.505814 -122.358514 105 5284ft 197kts
11-Jan-18 08:49 45.529533 -122.287026 10 6871ft 275kts
11-Jan-18 08:50 45.605479 -122.329074 328 8873ft 310kts
11-Jan-18 08:51 45.682160 -122.383419 324 11306ft 323kts
11-Jan-18 08:52 45.760062 -122.438736 322 14078ft 321kts
11-Jan-18 08:53 45.840049 -122.495943 322 15414ft 331kts
11-Jan-18 08:54 45.921476 -122.554229 321 18306ft 336kts
11-Jan-18 08:55 46.005822 -122.615123 321 19917ft 362kts
11-Jan-18 08:56 46.099598 -122.679986 332 19893ft 396kts
11-Jan-18 08:57 46.192458 -122.697932 341 19901ft 408kts
11-Jan-18 08:58 46.304059 -122.719097 340 19902ft 406kts
11-Jan-18 08:59 46.417290 -122.726108 347 19902ft 417kts
11-Jan-18 09:00 46.530832 -122.729796 347 19879ft 410kts
11-Jan-18 09:01 46.636404 -122.733494 346 19067ft 371kts
11-Jan-18 09:02 46.737582 -122.737194 346 17324ft 362kts
11-Jan-18 09:03 46.830690 -122.687523 34 15488ft 396kts
11-Jan-18 09:04 46.913993 -122.589416 34 13573ft 381kts
11-Jan-18 09:05 47.000413 -122.534479 13 12261ft 320kts
11-Jan-18 09:06 47.081966 -122.499355 10 11272ft 306kts
11-Jan-18 09:07 47.152942 -122.462625 52 10866ft 291kts
11-Jan-18 09:08 47.216022 -122.405754 358 11024ft 316kts
11-Jan-18 09:09 47.301361 -122.434659 342 9829ft 322kts
11-Jan-18 09:10 47.387432 -122.456528 0 8256ft 319kts
11-Jan-18 09:11 47.469889 -122.455534 0 6769ft 275kts
11-Jan-18 09:12 47.539930 -122.456661 358 6032ft 234kts
11-Jan-18 09:13 47.604518 -122.459729 358 4977ft 234kts
11-Jan-18 09:14 47.666457 -122.463128 358 4029ft 211kts
11-Jan-18 09:15 47.716963 -122.450733 69 4149ft 184kts
11-Jan-18 09:16 47.717008 -122.374992 94 4053ft 185kts
11-Jan-18 09:17 47.684432 -122.323957 145 4055ft 181kts
11-Jan-18 09:18 47.637403 -122.309414 179 3847ft 175kts
11-Jan-18 09:19 47.595240 -122.309916 179 3014ft 143kts
11-Jan-18 09:20 47.555448 -122.310259 179 2265ft 145kts
11-Jan-18 09:21 47.515636 -122.310587 179 1489ft 143kts
11-Jan-18 09:22 47.476686 -122.311006 179 763ft 140kts
11-Jan-18 09:23 47.447797 -122.311117 178 441ft 33kts
11-Jan-18 09:24 47.444660 -122.309462 150 440ft 0kts
11-Jan-18 09:25 47.444223 -122.309094 150 440ft 10kts
11-Jan-18 09:26 47.443110 -122.304382 150 440ft 3kts
11-Jan-18 09:27 47.442560 -122.303859 138 440ft 0kts
11-Jan-18 09:28 47.442560 -122.303859 138 440ft 0kts
11-Jan-18 09:29 47.442560 -122.303859 138 440ft 0kts

Navigation Log

Ident Type
Flight plan parsing failed, navigation log unavailable